Time;durP1;ratioP1;P1;durP2;ratioP2;P2;SDS_P1;SDS_P2;PMS_P1;PMS_P2;Temp;Humidity;BMP_temperature;BMP_pressure;BME280_temperature;BME280_humidity;BME280_pressure;Samples;Min_cycle;Max_cycle;Signal;HPM_P1;HPM_P2
2020/12/06 00:01:30;;;;;;;18.87;12.20;;;;;;;1.46;100.00;99845.88;4987987;28;20051;-87
2020/12/06 00:03:56;;;;;;;19.90;12.20;;;;;;;1.50;100.00;99845.88;4970277;28;20423;-88
2020/12/06 00:06:23;;;;;;;20.20;12.30;;;;;;;1.53;100.00;99840.72;4975663;28;20053;-87
2020/12/06 00:08:51;;;;;;;18.03;10.63;;;;;;;1.53;100.00;99845.91;4972167;28;20053;-87
2020/12/06 00:11:18;;;;;;;21.10;11.97;;;;;;;1.56;100.00;99848.53;4959391;28;20042;-88
2020/12/06 00:13:45;;;;;;;15.83;11.17;;;;;;;1.56;100.00;99858.94;4975310;28;20089;-87
2020/12/06 00:16:13;;;;;;;19.73;11.27;;;;;;;1.56;100.00;99860.66;5007205;28;20045;-87
2020/12/06 00:18:41;;;;;;;21.67;11.60;;;;;;;1.56;100.00;99873.69;4975434;28;20052;-87
2020/12/06 00:21:10;;;;;;;21.40;13.47;;;;;;;1.57;100.00;99871.06;4973503;28;20507;-87
2020/12/06 00:23:37;;;;;;;19.77;12.30;;;;;;;1.56;100.00;99864.13;4991286;28;20042;-87
2020/12/06 00:26:03;;;;;;;25.40;14.20;;;;;;;1.66;100.00;99868.50;4971227;28;20656;-88
2020/12/06 00:28:29;;;;;;;23.57;12.67;;;;;;;1.65;100.00;99874.56;4991188;28;20042;-87
2020/12/06 00:30:57;;;;;;;25.67;15.13;;;;;;;1.70;100.00;99869.41;4974102;28;20046;-88
2020/12/06 00:33:23;;;;;;;26.17;14.13;;;;;;;1.69;100.00;99863.31;4956771;28;20046;-88
2020/12/06 00:35:49;;;;;;;22.80;12.57;;;;;;;1.61;100.00;99861.56;4971449;28;20054;-87
2020/12/06 00:38:18;;;;;;;20.10;11.50;;;;;;;1.52;100.00;99854.59;5001715;28;20034;-86
2020/12/06 00:40:44;;;;;;;18.73;11.33;;;;;;;1.40;100.00;99846.72;4958552;28;20050;-88
2020/12/06 00:43:10;;;;;;;17.73;11.63;;;;;;;1.27;100.00;99848.44;4971488;28;20042;-88
2020/12/06 00:45:38;;;;;;;19.60;11.73;;;;;;;1.20;100.00;99848.41;4973397;28;20048;-88
2020/12/06 00:48:04;;;;;;;19.73;11.80;;;;;;;1.05;100.00;99854.38;4974506;28;20046;-88
2020/12/06 00:50:30;;;;;;;21.13;12.27;;;;;;;0.99;100.00;99863.03;4974240;28;20089;-88
2020/12/06 00:52:57;;;;;;;25.93;15.63;;;;;;;0.96;100.00;99849.16;4958997;28;20042;-88
2020/12/06 00:55:23;;;;;;;27.13;16.50;;;;;;;0.88;100.00;99850.84;4972630;28;20056;-88
2020/12/06 00:57:49;;;;;;;21.40;12.80;;;;;;;0.76;100.00;99843.84;4996763;28;20069;-87
2020/12/06 01:00:16;;;;;;;22.47;13.57;;;;;;;0.64;100.00;99841.16;4990393;28;20035;-87
2020/12/06 01:02:42;;;;;;;21.83;12.70;;;;;;;0.53;100.00;99841.97;4991387;28;20038;-87
2020/12/06 01:05:08;;;;;;;23.23;12.97;;;;;;;0.49;100.00;99849.72;4998017;28;20100;-87
2020/12/06 01:07:39;;;;;;;24.20;14.60;;;;;;;0.45;100.00;99842.75;4957995;28;20093;-87
2020/12/06 01:10:06;;;;;;;30.23;15.93;;;;;;;0.44;100.00;99834.09;4973932;28;20436;-87
2020/12/06 01:12:32;;;;;;;33.10;17.37;;;;;;;0.44;100.00;99826.31;4973592;28;20066;-87
2020/12/06 01:14:59;;;;;;;29.33;16.37;;;;;;;0.39;100.00;99812.41;4979764;28;20059;-88
2020/12/06 01:17:26;;;;;;;30.40;16.67;;;;;;;0.38;100.00;99802.00;4965267;28;20065;-87
2020/12/06 01:19:52;;;;;;;30.40;16.73;;;;;;;0.35;100.00;99802.00;4958458;28;20049;-87
2020/12/06 01:22:18;;;;;;;42.00;23.17;;;;;;;0.46;100.00;99797.72;4974435;28;20069;-88
2020/12/06 01:24:44;;;;;;;44.40;24.30;;;;;;;0.52;100.00;99798.63;4974035;28;20586;-88
2020/12/06 01:27:11;;;;;;;45.03;23.27;;;;;;;0.57;100.00;99799.53;4990092;28;20039;-87
2020/12/06 01:29:37;;;;;;;44.80;22.20;;;;;;;0.54;100.00;99790.84;4957662;28;20399;-88
2020/12/06 01:32:03;;;;;;;39.60;21.27;;;;;;;0.46;100.00;99790.78;4987529;28;20419;-88
2020/12/06 01:34:29;;;;;;;38.43;22.60;;;;;;;0.47;100.00;99796.88;4957987;28;20054;-88
2020/12/06 01:36:56;;;;;;;43.83;23.67;;;;;;;0.46;100.00;99780.41;4973867;28;20039;-86
2020/12/06 01:39:22;;;;;;;49.20;26.97;;;;;;;0.52;100.00;99772.66;4970562;28;20039;-87
2020/12/06 01:41:55;;;;;;;45.87;25.23;;;;;;;0.50;100.00;99769.16;4952762;28;20069;-87
2020/12/06 01:44:23;;;;;;;47.47;26.40;;;;;;;0.50;100.00;99770.88;4973947;28;20053;-87
2020/12/06 01:46:51;;;;;;;47.10;26.27;;;;;;;0.50;100.00;99779.53;4957599;28;20062;-87
2020/12/06 01:49:18;;;;;;;46.93;25.43;;;;;;;0.48;100.00;99770.00;4962527;28;20046;-87
2020/12/06 01:51:47;;;;;;;43.50;23.70;;;;;;;0.42;100.00;99769.97;4973494;28;20076;-87
2020/12/06 01:54:13;;;;;;;43.17;22.83;;;;;;;0.33;100.00;99762.13;4957644;28;20107;-87
2020/12/06 01:56:40;;;;;;;47.50;24.57;;;;;;;0.24;100.00;99766.38;4989588;28;20042;-86
2020/12/06 01:59:06;;;;;;;39.40;22.27;;;;;;;0.24;100.00;99757.72;4973703;28;20046;-88
2020/12/06 02:01:32;;;;;;;43.27;24.23;;;;;;;0.32;100.00;99757.78;4973533;28;20045;-87
2020/12/06 02:03:58;;;;;;;41.33;23.27;;;;;;;0.24;100.00;99750.81;5023938;23;20547;-93
2020/12/06 02:06:25;;;;;;;35.67;21.30;;;;;;;0.25;100.00;99737.00;5006822;28;20041;-93
2020/12/06 02:08:51;;;;;;;45.73;25.00;;;;;;;0.22;100.00;99725.69;5012428;28;20045;-93
2020/12/06 02:11:31;;;;;;;38.70;21.53;;;;;;;0.19;100.00;99715.28;5011642;28;20065;-92
2020/12/06 02:13:58;;;;;;;41.90;23.03;;;;;;;0.19;100.00;99710.97;5014301;28;20046;-93
2020/12/06 02:16:25;;;;;;;45.57;23.13;;;;;;;0.22;100.00;99717.91;4988216;28;20042;-93
2020/12/06 02:18:52;;;;;;;40.47;21.73;;;;;;;0.24;100.00;99713.56;5001099;28;20042;-93
2020/12/06 02:21:19;;;;;;;51.97;27.63;;;;;;;0.31;100.00;99698.91;5005465;28;20057;-93
2020/12/06 02:23:45;;;;;;;56.47;28.87;;;;;;;0.42;100.00;99695.50;4992247;28;20071;-93
2020/12/06 02:26:12;;;;;;;60.17;31.03;;;;;;;0.48;100.00;99689.44;4992991;28;20037;-93
2020/12/06 02:28:38;;;;;;;66.60;34.10;;;;;;;0.60;100.00;99689.53;5009149;28;20041;-93
2020/12/06 02:31:04;;;;;;;70.07;35.93;;;;;;;0.78;100.00;99691.31;4999406;28;20429;-92
2020/12/06 02:33:31;;;;;;;81.80;39.57;;;;;;;0.84;100.00;99700.03;4992614;28;20075;-92
2020/12/06 02:35:58;;;;;;;83.60;42.17;;;;;;;0.98;100.00;99704.38;4996368;28;20042;-92
2020/12/06 02:38:25;;;;;;;76.30;38.30;;;;;;;1.00;100.00;99700.91;4999667;28;20110;-93
2020/12/06 02:40:51;;;;;;;70.97;35.03;;;;;;;0.91;100.00;99698.28;4987600;28;20573;-92
2020/12/06 02:43:17;;;;;;;66.33;33.33;;;;;;;0.82;100.00;99699.13;4990355;28;20042;-93
2020/12/06 02:45:44;;;;;;;63.00;33.20;;;;;;;0.76;100.00;99708.66;5011340;28;20049;-92
2020/12/06 02:48:10;;;;;;;59.73;31.83;;;;;;;0.72;100.00;99706.88;4990742;28;20713;-93
2020/12/06 02:50:36;;;;;;;58.90;30.93;;;;;;;0.63;100.00;99699.91;5007626;28;20046;-93
2020/12/06 02:53:09;;;;;;;59.23;31.13;;;;;;;0.50;100.00;99693.78;5008748;28;20053;-93
2020/12/06 02:55:35;;;;;;;51.33;28.73;;;;;;;0.42;100.00;99697.22;5024958;28;20076;-93
2020/12/06 02:58:02;;;;;;;54.50;28.63;;;;;;;0.34;100.00;99701.50;4999070;28;20151;-93
2020/12/06 03:00:28;;;;;;;58.50;29.70;;;;;;;0.24;100.00;99695.38;5011551;28;20041;-93
2020/12/06 03:02:55;;;;;;;67.23;34.80;;;;;;;0.25;100.00;99690.22;5010232;28;20033;-93
2020/12/06 03:05:21;;;;;;;60.60;31.70;;;;;;;0.23;100.00;99704.03;5019542;28;20132;-92
2020/12/06 03:07:47;;;;;;;58.30;29.83;;;;;;;0.15;100.00;99700.53;5008733;28;20046;-93
2020/12/06 03:10:14;;;;;;;68.80;34.90;;;;;;;0.21;100.00;99710.97;5015661;28;20053;-93
2020/12/06 03:12:40;;;;;;;62.60;31.93;;;;;;;0.15;100.00;99709.19;5001235;28;20068;-92
2020/12/06 03:15:06;;;;;;;58.53;30.60;;;;;;;0.09;100.00;99697.91;5024147;28;20184;-93
2020/12/06 03:17:33;;;;;;;55.97;29.67;;;;;;;0.06;100.00;99700.47;5013027;28;20511;-93
2020/12/06 03:19:59;;;;;;;59.13;30.63;;;;;;;-0.04;100.00;99690.03;5031889;28;20097;-93
2020/12/06 03:22:32;;;;;;;60.40;30.17;;;;;;;-0.04;100.00;99686.56;5003406;28;20026;-93
2020/12/06 03:25:00;;;;;;;51.53;27.77;;;;;;;-0.12;100.00;99685.66;4996118;28;20037;-93
2020/12/06 03:27:27;;;;;;;54.80;27.00;;;;;;;-0.25;100.00;99669.13;5020012;28;20050;-93
2020/12/06 03:29:56;;;;;;;55.30;27.93;;;;;;;-0.22;100.00;99676.06;5015787;28;20038;-92
2020/12/06 03:32:23;;;;;;;68.77;33.70;;;;;;;-0.20;100.00;99666.56;5001799;28;20045;-93
2020/12/06 03:34:50;;;;;;;65.90;31.97;;;;;;;-0.17;100.00;99663.97;5018746;28;20053;-93
2020/12/06 03:37:16;;;;;;;67.27;30.60;;;;;;;-0.10;100.00;99658.84;5015577;28;20583;-93
2020/12/06 03:39:43;;;;;;;69.17;33.60;;;;;;;-0.03;100.00;99646.75;4995802;28;20075;-93
2020/12/06 03:42:12;;;;;;;82.60;39.77;;;;;;;0.06;100.00;99649.41;5012802;28;20120;-93
2020/12/06 03:44:38;;;;;;;64.40;33.90;;;;;;;0.08;100.00;99652.88;4995514;28;20041;-92
2020/12/06 03:47:05;;;;;;;61.17;30.90;;;;;;;0.08;100.00;99657.19;5016892;28;20053;-93
2020/12/06 03:49:33;;;;;;;85.00;38.77;;;;;;;0.22;100.00;99668.53;4992770;28;20045;-93
2020/12/06 03:52:00;;;;;;;62.73;31.30;;;;;;;0.15;100.00;99671.97;5024374;28;20068;-92
2020/12/06 03:54:26;;;;;;;56.30;29.17;;;;;;;0.04;100.00;99673.63;5025748;28;20056;-92
2020/12/06 03:56:53;;;;;;;64.40;30.60;;;;;;;0.01;100.00;99668.44;4994846;28;20041;-93
2020/12/06 03:59:19;;;;;;;56.07;27.10;;;;;;;-0.06;100.00;99676.19;5009019;28;20049;-93
2020/12/06 04:01:45;;;;;;;45.37;25.07;;;;;;;-0.12;100.00;99675.25;4992241;28;20045;-93
2020/12/06 04:04:12;;;;;;;47.73;24.50;;;;;;;-0.20;100.00;99682.13;5009588;28;20046;-92
2020/12/06 04:06:38;;;;;;;46.20;23.13;;;;;;;-0.26;100.00;99682.94;5019295;28;20046;-93
2020/12/06 04:09:05;;;;;;;39.07;21.87;;;;;;;-0.32;100.00;99693.31;5007862;28;20049;-92
2020/12/06 04:11:31;;;;;;;41.60;22.30;;;;;;;-0.35;100.00;99682.88;5009044;28;20060;-93
2020/12/06 04:13:58;;;;;;;42.77;23.03;;;;;;;-0.41;100.00;99678.53;5004527;28;20041;-92
2020/12/06 04:16:25;;;;;;;41.90;22.43;;;;;;;-0.43;100.00;99676.75;4989573;28;20048;-92
2020/12/06 04:18:51;;;;;;;43.30;24.07;;;;;;;-0.46;100.00;99681.94;5000067;28;20060;-92
2020/12/06 04:21:18;;;;;;;46.60;23.37;;;;;;;-0.49;100.00;99680.19;4998201;28;20037;-93
2020/12/06 04:23:44;;;;;;;41.07;22.80;;;;;;;-0.49;100.00;99680.19;5012884;28;20037;-92
2020/12/06 04:26:13;;;;;;;45.50;23.73;;;;;;;-0.54;100.00;99684.47;5000431;28;20069;-93
2020/12/06 04:28:39;;;;;;;46.83;24.77;;;;;;;-0.53;100.00;99690.50;5012650;28;20135;-92
2020/12/06 04:31:06;;;;;;;49.50;25.93;;;;;;;-0.53;100.00;99691.38;5010207;28;20049;-92
2020/12/06 04:33:33;;;;;;;41.83;23.23;;;;;;;-0.57;100.00;99690.50;5016244;28;20196;-93
2020/12/06 04:36:01;;;;;;;40.60;22.20;;;;;;;-0.60;100.00;99690.47;4996206;28;20053;-93
2020/12/06 04:38:28;;;;;;;39.70;21.20;;;;;;;-0.66;100.00;99694.75;5027460;28;20049;-93
2020/12/06 04:40:54;;;;;;;38.07;20.83;;;;;;;-0.72;100.00;99698.13;5027493;28;20109;-93
2020/12/06 04:43:21;;;;;;;35.07;20.77;;;;;;;-0.75;100.00;99689.47;5010058;28;20045;-93
2020/12/06 04:45:49;;;;;;;38.13;21.27;;;;;;;-0.79;100.00;99695.47;5011687;28;20057;-93
2020/12/06 04:48:24;;;;;;;37.40;20.93;;;;;;;-0.86;100.00;99685.03;5016379;28;20056;-92
2020/12/06 04:50:55;;;;;;;37.10;19.23;;;;;;;-0.90;100.00;99682.41;5008104;28;20045;-93
2020/12/06 04:53:27;;;;;;;36.27;19.83;;;;;;;-0.98;100.00;99674.56;5043830;28;20064;-93
2020/12/06 04:55:57;;;;;;;45.47;22.00;;;;;;;-0.97;100.00;99678.00;5013244;28;20045;-93
2020/12/06 04:58:28;;;;;;;40.73;22.00;;;;;;;-1.04;100.00;99665.84;5008335;28;20061;-92
2020/12/06 05:00:55;;;;;;;37.00;21.03;;;;;;;-1.06;100.00;99659.78;5014841;28;20050;-93
2020/12/06 05:03:26;;;;;;;37.47;20.23;;;;;;;-1.11;100.00;99653.66;5017604;28;20048;-93
2020/12/06 05:05:56;;;;;;;37.53;20.63;;;;;;;-1.16;100.00;99651.03;4996985;28;20060;-92
2020/12/06 05:08:25;;;;;;;40.97;21.40;;;;;;;-1.16;100.00;99643.25;5020961;28;20527;-93
2020/12/06 05:10:52;;;;;;;39.83;21.67;;;;;;;-1.18;100.00;99655.31;5020794;28;20045;-94
2020/12/06 05:13:18;;;;;;;49.30;23.07;;;;;;;-1.15;100.00;99655.38;5020024;28;20075;-94
2020/12/06 05:15:44;;;;;;;58.93;28.63;;;;;;;-1.05;100.00;99656.31;4996254;28;20117;-93
2020/12/06 05:18:14;;;;;;;52.13;25.57;;;;;;;-1.07;100.00;99640.75;4996812;28;20279;-93
2020/12/06 05:20:40;;;;;;;59.00;29.97;;;;;;;-1.05;100.00;99635.59;5003692;28;20080;-93
2020/12/06 05:23:07;;;;;;;73.87;31.30;;;;;;;-0.93;100.00;99631.38;5011493;28;20149;-93
2020/12/06 05:25:33;;;;;;;68.80;33.33;;;;;;;-0.85;100.00;99621.06;5022508;28;20042;-94
2020/12/06 05:28:00;;;;;;;59.67;30.10;;;;;;;-0.83;100.00;99623.72;5011504;28;20121;-94
2020/12/06 05:30:26;;;;;;;60.07;29.27;;;;;;;-0.81;100.00;99616.81;5000444;28;20750;-93
2020/12/06 05:32:53;;;;;;;55.57;27.97;;;;;;;-0.76;100.00;99620.28;5010595;28;20049;-93
2020/12/06 05:35:20;;;;;;;54.57;28.40;;;;;;;-0.72;100.00;99625.53;5003280;28;20113;-94
2020/12/06 05:37:46;;;;;;;58.07;26.80;;;;;;;-0.74;100.00;99637.63;5009679;28;20142;-93
2020/12/06 05:40:17;;;;;;;56.00;28.90;;;;;;;-0.74;100.00;99640.22;4999749;28;20045;-92
2020/12/06 05:42:44;;;;;;;64.20;32.00;;;;;;;-0.70;100.00;99644.56;5003068;28;20449;-92
2020/12/06 05:45:11;;;;;;;66.73;32.20;;;;;;;-0.50;100.00;99647.31;5007180;28;20033;-92
2020/12/06 05:47:38;;;;;;;73.37;34.17;;;;;;;-0.44;100.00;99647.34;5025489;28;20045;-93
2020/12/06 05:50:06;;;;;;;85.37;35.30;;;;;;;-0.39;100.00;99644.81;4997050;28;20064;-92
2020/12/06 05:52:33;;;;;;;68.40;32.37;;;;;;;-0.34;100.00;99640.50;5019210;28;20096;-93
2020/12/06 05:55:01;;;;;;;95.57;41.77;;;;;;;-0.03;100.00;99632.06;4995533;28;20060;-92
2020/12/06 05:57:43;;;;;;;82.77;36.00;;;;;;;-0.04;100.00;99627.72;4997491;28;20064;-92
2020/12/06 06:00:10;;;;;;;70.23;32.57;;;;;;;-0.10;100.00;99622.47;5015925;28;20137;-92
2020/12/06 06:02:36;;;;;;;84.80;39.53;;;;;;;-0.07;100.00;99616.47;5014271;28;20046;-92
2020/12/06 06:05:05;;;;;;;103.13;44.87;;;;;;;0.38;100.00;99615.81;5000733;28;20136;-93
2020/12/06 06:07:32;;;;;;;99.27;41.23;;;;;;;0.48;100.00;99619.28;5004373;28;20095;-92
2020/12/06 06:10:02;;;;;;;121.53;48.67;;;;;;;0.70;100.00;99617.63;5009347;28;20073;-93
2020/12/06 06:12:33;;;;;;;104.37;44.47;;;;;;;0.77;100.00;99629.78;5014901;28;20054;-92
2020/12/06 06:15:04;;;;;;;98.07;42.17;;;;;;;0.83;100.00;99632.38;5027081;28;20048;-93
2020/12/06 06:17:31;;;;;;;101.20;43.47;;;;;;;1.04;100.00;99635.03;5007975;28;20057;-94
2020/12/06 06:19:58;;;;;;;101.53;48.50;;;;;;;1.15;100.00;99637.66;4995886;28;20048;-93
2020/12/06 06:22:39;;;;;;;103.90;49.90;;;;;;;1.42;100.00;99632.44;5030542;28;20049;-93
2020/12/06 06:25:06;;;;;;;93.53;42.83;;;;;;;1.48;100.00;99636.78;5014044;28;20041;-92
2020/12/06 06:27:37;;;;;;;124.23;50.13;;;;;;;1.76;100.00;99637.63;5030672;28;20041;-93
2020/12/06 06:30:07;;;;;;;148.17;53.17;;;;;;;1.94;100.00;99626.34;5003050;28;20878;-92
2020/12/06 06:32:35;;;;;;;119.10;49.10;;;;;;;2.18;100.00;99613.22;5000265;28;20041;-93
2020/12/06 06:35:03;;;;;;;108.30;53.90;;;;;;;2.20;100.00;99611.50;4993868;28;20122;-93
2020/12/06 06:37:30;;;;;;;102.90;45.13;;;;;;;2.34;100.00;99615.78;5012613;28;20053;-94
2020/12/06 06:39:59;;;;;;;103.10;47.40;;;;;;;2.47;100.00;99604.44;5009552;28;20057;-93
2020/12/06 06:42:27;;;;;;;99.83;45.20;;;;;;;2.44;100.00;99609.69;5016154;28;20148;-93
2020/12/06 06:45:06;;;;;;;83.83;40.37;;;;;;;2.71;100.00;99616.47;5011031;28;20045;-93
2020/12/06 06:47:37;;;;;;;104.87;63.77;;;;;;;2.83;100.00;99622.47;4999887;28;20042;-92
2020/12/06 06:50:04;;;;;;;83.10;38.13;;;;;;;2.87;100.00;99625.97;5008299;28;20050;-93
2020/12/06 06:52:31;;;;;;;64.13;33.10;;;;;;;3.08;100.00;99625.81;4999767;28;20037;-92
2020/12/06 06:55:00;;;;;;;66.17;33.47;;;;;;;3.20;100.00;99637.06;4999371;28;20041;-92
2020/12/06 06:57:29;;;;;;;57.93;30.57;;;;;;;3.16;100.00;99648.38;5007849;28;20049;-93
2020/12/06 06:59:57;;;;;;;63.40;30.13;;;;;;;3.40;100.00;99629.94;5014997;28;20056;-92
2020/12/06 07:02:40;;;;;;;56.77;28.37;;;;;;;3.41;100.00;99633.41;5009440;28;20077;-92
2020/12/06 07:05:19;;;;;;;51.57;27.10;;;;;;;3.51;100.00;99627.22;5005338;28;20037;-92
2020/12/06 07:07:49;;;;;;;51.33;24.93;;;;;;;3.47;100.00;99635.97;4997814;28;20040;-93
2020/12/06 07:10:23;;;;;;;46.00;26.00;;;;;;;3.60;100.00;99637.59;5000047;28;20037;-93
2020/12/06 07:12:53;;;;;;;44.97;25.55;;;;;;;3.78;100.00;99634.81;5010812;28;20072;-93
2020/12/06 07:15:21;;;;;;;40.87;23.50;;;;;;;3.82;100.00;99631.28;5005866;28;20273;-93
2020/12/06 07:17:49;;;;;;;42.37;23.60;;;;;;;3.92;100.00;99634.69;5004301;28;20055;-93
2020/12/06 07:20:16;;;;;;;36.57;21.80;;;;;;;3.98;100.00;99623.31;4998714;28;20041;-93
2020/12/06 07:22:46;;;;;;;40.20;21.03;;;;;;;3.93;100.00;99610.28;4993288;28;20041;-93
2020/12/06 07:25:13;;;;;;;35.50;19.47;;;;;;;4.02;100.00;99622.38;5006614;28;20042;-93
2020/12/06 07:27:40;;;;;;;36.30;19.90;;;;;;;4.16;100.00;99623.09;5005821;28;20068;-93
2020/12/06 07:30:08;;;;;;;33.07;18.97;;;;;;;4.19;100.00;99623.06;4999616;28;20064;-94
2020/12/06 07:32:35;;;;;;;32.90;19.13;;;;;;;4.23;100.00;99630.88;4995558;28;20281;-92
2020/12/06 07:35:03;;;;;;;31.63;17.17;;;;;;;4.43;100.00;99633.25;5007716;28;20753;-93
2020/12/06 07:37:29;;;;;;;32.07;17.37;;;;;;;4.46;100.00;99632.34;5011187;28;20112;-92
2020/12/06 07:39:56;;;;;;;31.23;18.37;;;;;;;4.56;100.00;99633.97;4991392;28;20640;-93
2020/12/06 07:42:27;;;;;;;29.93;17.80;;;;;;;4.67;100.00;99636.44;4998976;28;20057;-93
2020/12/06 07:44:56;;;;;;;25.13;16.30;;;;;;;4.72;100.00;99638.13;5051943;28;20145;-92
2020/12/06 07:47:24;;;;;;;32.10;17.50;;;;;;;4.78;100.00;99640.63;5007200;28;20112;-93
2020/12/06 07:49:58;;;;;;;31.53;18.07;;;;;;;4.75;100.00;99637.22;4996029;28;20041;-93
2020/12/06 07:52:30;;;;;;;32.80;23.27;;;;;;;4.83;100.00;99624.03;5018028;28;20407;-93
2020/12/06 07:54:58;;;;;;;31.07;19.10;;;;;;;4.88;100.00;99625.69;4992215;28;20041;-93
2020/12/06 07:57:40;;;;;;;29.17;16.73;;;;;;;5.03;100.00;99621.97;4984136;28;20045;-93
2020/12/06 08:00:09;;;;;;;24.70;16.17;;;;;;;5.14;100.00;99621.84;5006972;28;20105;-93
2020/12/06 08:02:36;;;;;;;25.27;16.53;;;;;;;5.30;100.00;99615.47;4995180;28;20052;-94
2020/12/06 08:05:03;;;;;;;28.20;16.50;;;;;;;5.37;100.00;99611.84;5003473;28;20042;-93
2020/12/06 08:07:37;;;;;;;26.73;14.90;;;;;;;5.34;100.00;99615.38;4985857;28;20104;-93
2020/12/06 08:10:05;;;;;;;27.33;15.85;;;;;;;5.34;100.00;99620.63;5007334;28;20046;-92
2020/12/06 08:12:33;;;;;;;24.40;14.90;;;;;;;5.40;100.00;99619.69;5000489;28;20045;-93
2020/12/06 08:15:27;;;;;;;24.73;15.13;;;;;;;5.50;100.00;99623.00;4982136;28;20069;-93
2020/12/06 08:17:54;;;;;;;22.60;14.17;;;;;;;5.48;100.00;99611.69;4999090;28;20046;-93
2020/12/06 08:20:22;;;;;;;27.67;16.60;;;;;;;5.62;100.00;99626.25;5004382;28;20092;-93
2020/12/06 08:22:55;;;;;;;24.83;15.03;;;;;;;5.68;100.00;99621.81;5002133;28;20045;-92
2020/12/06 08:25:26;;;;;;;23.77;14.43;;;;;;;5.77;100.00;99613.81;5001639;28;20136;-93
2020/12/06 08:27:54;;;;;;;23.17;14.43;;;;;;;5.85;100.00;99614.53;4985238;28;20267;-94
2020/12/06 08:30:24;;;;;;;23.93;13.83;;;;;;;5.89;100.00;99610.97;4986237;28;20103;-93
2020/12/06 08:33:00;;;;;;;23.30;15.10;;;;;;;5.93;100.00;99617.91;5001003;28;20180;-92
2020/12/06 08:36:00;;;;;;;22.63;13.80;;;;;;;6.09;98.55;99626.38;4992010;28;20057;-93
2020/12/06 08:38:32;;;;;;;21.97;14.10;;;;;;;6.16;98.69;99625.34;4997753;28;20107;-92
2020/12/06 08:41:03;;;;;;;22.37;13.27;;;;;;;6.17;97.73;99611.34;5004045;28;20052;-92
2020/12/06 08:43:46;;;;;;;20.97;13.83;;;;;;;6.18;97.91;99599.97;4976364;28;20139;-93
2020/12/06 08:46:18;;;;;;;18.97;12.50;;;;;;;6.22;97.54;99599.00;5004804;28;20052;-93
2020/12/06 08:48:45;;;;;;;20.43;12.73;;;;;;;6.33;96.94;99612.78;5001423;28;20045;-93
2020/12/06 08:51:33;;;;;;;21.73;13.27;;;;;;;6.42;96.29;99611.72;5053218;28;20041;-93
2020/12/06 08:54:01;;;;;;;19.60;13.20;;;;;;;6.47;95.85;99602.88;5021820;28;20577;-92
2020/12/06 08:56:34;;;;;;;22.70;13.33;;;;;;;6.60;94.65;99602.59;4985387;28;20041;-93
2020/12/06 08:59:06;;;;;;;19.40;12.57;;;;;;;6.65;94.49;99609.50;5001444;28;20041;-93
2020/12/06 09:01:33;;;;;;;21.17;13.20;;;;;;;6.83;93.06;99597.72;5010739;28;20038;-92
2020/12/06 09:03:59;;;;;;;21.93;12.07;;;;;;;6.91;93.24;99592.31;4999194;28;20049;-93
2020/12/06 09:06:26;;;;;;;18.83;11.77;;;;;;;6.96;93.61;99599.16;5013769;28;20059;-93
2020/12/06 09:08:52;;;;;;;18.90;12.87;;;;;;;7.05;92.72;99605.97;5017690;28;20056;-92
2020/12/06 09:11:20;;;;;;;20.50;12.80;;;;;;;7.14;91.74;99605.75;4999683;28;20037;-92
2020/12/06 09:13:47;;;;;;;19.90;13.00;;;;;;;7.37;90.32;99607.84;4974995;28;20053;-92
2020/12/06 09:16:14;;;;;;;20.02;12.50;;;;;;;7.59;89.21;99595.03;5017247;28;20069;-92
2020/12/06 09:18:40;;;;;;;21.92;13.00;;;;;;;7.90;88.14;99584.56;4988896;28;20057;-94
2020/12/06 09:21:07;;;;;;;19.10;11.57;;;;;;;8.23;86.01;99582.78;5004337;28;20038;-94
2020/12/06 09:23:35;;;;;;;19.75;12.70;;;;;;;8.36;84.84;99578.94;5006268;28;20038;-93
2020/12/06 09:26:03;;;;;;;17.67;11.40;;;;;;;8.37;83.60;99572.78;5020316;28;20045;-93
2020/12/06 09:28:30;;;;;;;18.40;12.02;;;;;;;8.68;82.06;99561.34;5021135;28;20045;-93
2020/12/06 09:30:56;;;;;;;19.30;12.93;;;;;;;8.84;81.34;99554.69;5000559;28;20042;-92
2020/12/06 09:33:23;;;;;;;19.15;12.20;;;;;;;8.99;81.32;99546.28;4978400;28;20574;-93
2020/12/06 09:35:49;;;;;;;18.05;11.80;;;;;;;8.71;81.31;99537.53;4984182;28;20061;-92
2020/12/06 09:38:18;;;;;;;18.55;12.43;;;;;;;8.53;82.54;99536.34;4998248;28;20128;-93
2020/12/06 09:40:44;;;;;;;20.00;13.00;;;;;;;8.59;82.83;99533.53;4999282;28;20042;-93
2020/12/06 09:43:10;;;;;;;19.27;12.13;;;;;;;8.49;82.87;99537.31;4996879;28;20447;-93
2020/12/06 09:45:37;;;;;;;22.45;15.02;;;;;;;8.24;83.51;99538.91;5029492;23;20041;-69
2020/12/06 09:48:03;;;;;;;18.13;13.38;;;;;;;8.28;83.36;99535.31;5051260;28;20040;-68
2020/12/06 09:50:29;;;;;;;24.50;16.90;;;;;;;8.19;84.50;99531.16;5031852;28;20043;-68
2020/12/06 09:52:55;;;;;;;26.83;18.77;;;;;;;8.35;83.92;99532.47;5043506;28;20045;-68
2020/12/06 09:55:23;;;;;;;23.02;14.43;;;;;;;8.24;83.16;99538.91;5047523;28;20448;-68
2020/12/06 09:57:49;;;;;;;17.60;11.98;;;;;;;8.32;83.48;99526.41;5047921;28;20047;-68
2020/12/06 10:00:15;;;;;;;20.20;12.77;;;;;;;8.16;83.91;99542.66;5062614;28;20036;-68
2020/12/06 10:02:42;;;;;;;15.68;12.02;;;;;;;8.26;84.33;99522.19;5046775;28;20041;-68
2020/12/06 10:05:11;;;;;;;15.13;11.80;;;;;;;8.40;83.50;99517.41;5065590;28;20371;-68
2020/12/06 10:07:37;;;;;;;18.10;12.82;;;;;;;8.39;83.13;99515.69;5047768;28;20045;-69
2020/12/06 10:10:05;;;;;;;21.10;12.25;;;;;;;8.48;83.03;99513.69;5071153;28;20048;-68
2020/12/06 10:12:31;;;;;;;16.98;12.05;;;;;;;8.40;83.54;99498.97;5048754;28;20037;-69
2020/12/06 10:14:57;;;;;;;18.90;12.70;;;;;;;8.55;82.40;99496.78;5052297;28;20045;-69
2020/12/06 10:17:23;;;;;;;19.10;12.02;;;;;;;8.67;82.30;99506.97;5046544;28;20456;-69
2020/12/06 10:19:50;;;;;;;17.65;12.05;;;;;;;8.80;81.58;99497.75;5046182;28;20652;-69
2020/12/06 10:22:16;;;;;;;19.60;11.93;;;;;;;8.92;80.62;99517.59;5062138;28;20037;-68
2020/12/06 10:24:42;;;;;;;17.67;11.70;;;;;;;9.03;80.44;99518.09;5045141;28;20506;-68
2020/12/06 10:27:09;;;;;;;19.55;11.35;;;;;;;9.08;80.53;99505.66;5046900;28;20080;-68
2020/12/06 10:29:36;;;;;;;17.88;11.90;;;;;;;9.55;78.36;99517.22;5046706;28;20138;-68
2020/12/06 10:32:02;;;;;;;18.60;11.90;;;;;;;9.77;77.18;99512.06;5045586;28;20029;-68
2020/12/06 10:34:28;;;;;;;17.67;11.10;;;;;;;10.09;74.75;99520.59;5046244;28;20045;-68
2020/12/06 10:36:57;;;;;;;13.73;10.50;;;;;;;10.47;73.48;99515.69;5062404;28;20743;-68
2020/12/06 10:39:24;;;;;;;15.88;11.20;;;;;;;10.47;72.27;99508.63;5044862;28;20041;-68
2020/12/06 10:41:51;;;;;;;13.68;11.10;;;;;;;11.03;71.62;99510.81;5046919;28;20041;-69
2020/12/06 10:44:18;;;;;;;14.95;10.20;;;;;;;11.42;70.24;99512.72;5031112;28;20152;-68
2020/12/06 10:46:44;;;;;;;16.08;10.82;;;;;;;11.23;68.84;99534.63;5047712;28;20084;-69
2020/12/06 10:49:11;;;;;;;17.27;11.32;;;;;;;11.63;68.33;99538.25;5066026;28;20547;-68
2020/12/06 10:51:39;;;;;;;15.63;10.95;;;;;;;12.09;66.32;99537.13;5050822;28;20041;-68
2020/12/06 10:54:05;;;;;;;16.85;11.30;;;;;;;11.28;68.17;99535.31;5049502;28;20049;-68
2020/12/06 10:56:32;;;;;;;13.38;10.68;;;;;;;11.46;67.92;99538.13;5066187;28;20052;-68
2020/12/06 10:58:58;;;;;;;14.73;10.40;;;;;;;11.41;69.13;99542.72;5052550;28;20111;-68
2020/12/06 11:01:26;;;;;;;14.68;9.95;;;;;;;11.32;69.94;99537.81;5048872;28;20040;-68
2020/12/06 11:03:52;;;;;;;15.65;11.43;;;;;;;11.30;69.65;99529.09;5049093;28;20041;-68
2020/12/06 11:06:20;;;;;;;16.58;10.80;;;;;;;11.24;69.66;99517.84;5066663;28;20041;-67
2020/12/06 11:08:46;;;;;;;16.92;11.27;;;;;;;11.13;69.62;99511.28;5046970;28;20041;-68
2020/12/06 11:11:16;;;;;;;18.10;11.32;;;;;;;11.51;68.52;99517.59;5038627;28;20082;-68
2020/12/06 11:13:43;;;;;;;13.77;10.57;;;;;;;11.63;68.45;99511.81;5049456;28;20452;-68
2020/12/06 11:16:09;;;;;;;23.55;16.20;;;;;;;11.11;69.58;99513.16;5048770;28;20460;-68
2020/12/06 11:18:35;;;;;;;18.73;11.52;;;;;;;11.01;70.33;99510.00;5049202;28;20037;-68
2020/12/06 11:21:02;;;;;;;23.05;16.02;;;;;;;10.78;71.39;99516.22;5049415;28;20063;-68